createdAt,value
2019-05-10T00:02:44.087Z,1.10
2019-05-10T00:08:05.088Z,1.45
2019-05-10T00:13:10.171Z,1.25
2019-05-10T00:18:13.469Z,1.60
2019-05-10T00:23:16.890Z,1.27
2019-05-10T00:28:20.541Z,1.30
2019-05-10T00:33:24.011Z,1.27
2019-05-10T00:38:27.429Z,1.17
2019-05-10T00:43:30.835Z,1.47
2019-05-10T00:48:34.245Z,1.42
2019-05-10T00:53:37.662Z,1.20
2019-05-10T00:58:41.071Z,1.30
2019-05-10T01:03:44.485Z,0.93
2019-05-10T01:08:47.897Z,0.90
2019-05-10T01:13:51.305Z,1.30
2019-05-10T01:18:54.719Z,1.10
2019-05-10T01:23:58.125Z,1.15
2019-05-10T01:29:01.539Z,1.27
2019-05-10T01:34:04.954Z,1.05
2019-05-10T01:39:08.464Z,1.50
2019-05-10T01:44:11.882Z,1.30
2019-05-10T01:49:15.286Z,1.40
2019-05-10T01:54:18.699Z,0.82
2019-05-10T01:59:22.116Z,1.40
2019-05-10T02:04:25.453Z,0.90
2019-05-10T02:09:28.853Z,0.90
2019-05-10T02:14:32.349Z,1.10
2019-05-10T02:19:35.757Z,1.00
2019-05-10T02:24:39.174Z,1.10
2019-05-10T02:29:42.995Z,1.17
2019-05-10T02:34:46.403Z,0.80
2019-05-10T02:39:49.818Z,1.05
2019-05-10T02:44:53.229Z,1.10
2019-05-10T02:49:59.151Z,0.80
2019-05-10T02:55:01.750Z,0.90
2019-05-10T03:00:06.238Z,0.90
2019-05-10T03:05:10.153Z,0.80
2019-05-10T03:10:15.103Z,1.20
2019-05-10T03:15:18.509Z,0.90
2019-05-10T03:20:21.884Z,0.80
2019-05-10T03:25:25.301Z,1.30
2019-05-10T03:30:28.625Z,1.12
2019-05-10T03:35:32.142Z,1.00
2019-05-10T03:40:35.448Z,1.00
2019-05-10T03:45:38.845Z,1.82
2019-05-10T03:50:42.251Z,2.85
2019-05-10T03:55:45.657Z,2.12
2019-05-10T04:00:49.172Z,2.98
2019-05-10T04:05:52.518Z,3.05
2019-05-10T04:10:55.858Z,3.87
2019-05-10T04:15:59.312Z,5.05
2019-05-10T04:21:02.715Z,3.85
2019-05-10T04:26:06.129Z,3.67
2019-05-10T04:31:09.544Z,4.05
2019-05-10T04:36:13.163Z,3.55
2019-05-10T04:41:16.708Z,3.52
2019-05-10T04:46:20.067Z,4.25
2019-05-10T04:51:23.403Z,3.83
2019-05-10T04:56:26.807Z,3.83
2019-05-10T05:01:30.139Z,3.80
2019-05-10T05:06:33.524Z,3.08
2019-05-10T05:11:36.938Z,3.20
2019-05-10T05:16:40.274Z,3.25
2019-05-10T05:21:43.660Z,3.27
2019-05-10T05:26:46.989Z,2.83
2019-05-10T05:31:53.958Z,3.10
2019-05-10T05:36:55.529Z,2.35
2019-05-10T05:41:58.937Z,2.92
2019-05-10T05:47:04.640Z,2.30
2019-05-10T05:52:07.503Z,2.80
2019-05-10T05:57:10.912Z,2.52
2019-05-10T06:02:14.348Z,2.10
2019-05-10T06:07:17.842Z,2.02
2019-05-10T06:12:21.372Z,2.00
2019-05-10T06:17:29.569Z,1.95
2019-05-10T06:22:29.919Z,2.10
2019-05-10T06:27:35.442Z,1.60
2019-05-10T06:32:38.491Z,1.85
2019-05-10T06:37:41.904Z,1.95
2019-05-10T06:42:45.405Z,1.75
2019-05-10T06:47:49.714Z,2.20
2019-05-10T06:52:53.974Z,1.92
2019-05-10T06:58:00.650Z,1.90
2019-05-10T07:03:02.436Z,1.95
2019-05-10T07:08:14.206Z,1.98
2019-05-10T07:13:11.043Z,1.90
2019-05-10T07:18:16.873Z,2.12
2019-05-10T07:23:19.566Z,1.82
2019-05-10T07:28:22.979Z,1.80
2019-05-10T07:33:26.388Z,1.72
2019-05-10T07:38:30.800Z,1.82
2019-05-10T07:43:34.955Z,1.65
2019-05-10T07:48:41.178Z,1.80
2019-05-10T07:53:43.425Z,1.37
2019-05-10T07:58:46.825Z,1.95
2019-05-10T08:03:52.516Z,2.15
2019-05-10T08:09:00.810Z,1.52
2019-05-10T08:14:06.097Z,2.00
2019-05-10T08:19:05.690Z,1.98
2019-05-10T08:24:13.711Z,1.95
2019-05-10T08:29:16.860Z,1.80
2019-05-10T08:34:19.317Z,1.60
2019-05-10T08:39:22.717Z,1.98
2019-05-10T08:44:26.129Z,1.75
2019-05-10T08:49:40.775Z,1.82
2019-05-10T08:54:34.701Z,2.17
2019-05-10T08:59:38.100Z,1.47
2019-05-10T09:04:48.694Z,1.65
2019-05-10T09:09:50.156Z,1.55
2019-05-10T09:14:57.375Z,1.65
2019-05-10T09:19:56.788Z,1.40
2019-05-10T09:25:01.817Z,1.35
2019-05-10T09:30:08.279Z,1.30
2019-05-10T09:35:12.762Z,1.55
2019-05-10T09:40:15.861Z,1.40
2019-05-10T09:45:19.278Z,1.42
2019-05-10T09:50:23.045Z,1.47
2019-05-10T09:55:27.996Z,1.50
2019-05-10T10:00:33.382Z,1.50
2019-05-10T10:05:39.811Z,1.52
2019-05-10T10:10:42.171Z,1.55
2019-05-10T10:15:51.507Z,1.50
2019-05-10T10:20:50.728Z,1.32
2019-05-10T10:25:54.145Z,1.40
2019-05-10T10:31:00.066Z,1.62
2019-05-10T10:36:10.266Z,1.45
2019-05-10T10:41:08.351Z,1.50
2019-05-10T10:46:12.592Z,1.55
2019-05-10T10:51:18.193Z,1.30
2019-05-10T10:56:21.374Z,1.50
2019-05-10T11:01:25.763Z,1.30
2019-05-10T11:06:29.936Z,1.35
2019-05-10T11:11:38.654Z,1.20
2019-05-10T11:16:38.394Z,1.25
2019-05-10T11:21:41.812Z,1.70
2019-05-10T11:26:45.255Z,1.50
2019-05-10T11:32:07.075Z,1.32
2019-05-10T11:36:53.790Z,1.47
2019-05-10T11:42:02.019Z,1.20
2019-05-10T11:47:02.292Z,1.22
2019-05-10T11:52:09.716Z,1.10
2019-05-10T11:57:13.630Z,1.10
2019-05-10T12:02:37.116Z,1.50
2019-05-10T12:07:26.850Z,1.20
2019-05-10T12:12:45.246Z,1.00
2019-05-10T12:17:31.318Z,1.10
2019-05-10T12:22:38.171Z,1.10
2019-05-10T12:27:45.326Z,1.02
2019-05-10T12:32:55.752Z,1.05
2019-05-10T12:37:53.935Z,1.15
2019-05-10T12:42:55.348Z,1.10
2019-05-10T12:48:01.108Z,1.20
2019-05-10T12:53:13.796Z,1.02
2019-05-10T12:58:08.954Z,0.90
2019-05-10T13:03:13.549Z,1.00
2019-05-10T13:08:17.110Z,1.20
2019-05-10T13:13:23.144Z,1.10
2019-05-10T13:18:48.156Z,1.20
2019-05-10T13:23:30.620Z,1.10
2019-05-10T13:28:34.029Z,1.10
2019-05-10T13:33:41.931Z,1.07
2019-05-10T13:38:48.592Z,1.00
2019-05-10T13:43:48.190Z,1.02
2019-05-10T13:48:51.671Z,1.12
2019-05-10T13:53:59.020Z,0.98
2019-05-10T13:59:13.750Z,1.20
2019-05-10T14:04:05.504Z,1.60
2019-05-10T14:09:08.898Z,1.30
2019-05-10T14:14:14.479Z,1.20
2019-05-10T14:19:23.069Z,1.25
2019-05-10T14:24:22.596Z,1.77
2019-05-10T14:29:34.663Z,1.25
2019-05-10T14:34:31.263Z,1.55
2019-05-10T14:39:34.693Z,1.92
2019-05-10T14:44:38.806Z,2.08
2019-05-10T14:49:46.818Z,1.42
2019-05-10T14:54:49.842Z,1.45
2019-05-10T14:59:52.849Z,1.70
2019-05-10T15:04:56.256Z,1.50
2019-05-10T15:10:00.804Z,1.57
2019-05-10T15:15:06.190Z,1.55
2019-05-10T15:20:09.534Z,1.40
2019-05-10T15:25:12.981Z,1.27
2019-05-10T15:30:16.318Z,1.60
2019-05-10T15:35:19.700Z,1.40
2019-05-10T15:40:23.111Z,1.40
2019-05-10T15:45:26.518Z,1.30
2019-05-10T15:50:32.419Z,1.52
2019-05-10T15:55:35.096Z,1.42
2019-05-10T16:00:41.381Z,1.50
2019-05-10T16:05:44.259Z,1.20
2019-05-10T16:10:47.776Z,1.17
2019-05-10T16:15:56.917Z,1.30
2019-05-10T16:20:56.345Z,1.30
2019-05-10T16:25:59.766Z,1.10
2019-05-10T16:31:03.167Z,1.27
2019-05-10T16:36:08.327Z,2.65
2019-05-10T16:41:11.841Z,1.70
2019-05-10T16:46:15.518Z,1.45
2019-05-10T16:51:19.130Z,1.65
2019-05-10T16:56:22.580Z,1.75
2019-05-10T17:01:27.740Z,1.50
2019-05-10T17:06:35.537Z,1.37
2019-05-10T17:11:36.501Z,2.10
2019-05-10T17:16:39.918Z,2.20
2019-05-10T17:21:43.322Z,2.08
2019-05-10T17:26:46.735Z,3.20
2019-05-10T17:31:50.143Z,3.62
2019-05-10T17:36:58.110Z,2.72
2019-05-10T17:42:03.076Z,2.92
2019-05-10T17:47:03.759Z,2.85
2019-05-10T17:52:07.480Z,2.90
2019-05-10T17:57:16.596Z,2.87
2019-05-10T18:02:15.938Z,2.35
2019-05-10T18:07:19.369Z,3.05
2019-05-10T18:47:48.791Z,2.98
2019-05-10T18:52:52.208Z,2.47
2019-05-10T18:57:55.649Z,2.72
2019-05-10T19:24:30.329Z,2.50
2019-05-10T19:26:09.552Z,1.87
2019-05-10T19:26:42.900Z,1.93
2019-05-10T19:27:16.491Z,2.13
2019-05-10T19:27:51.010Z,2.00
2019-05-10T19:41:48.013Z,2.00
2019-05-10T19:46:51.426Z,2.50
2019-05-10T19:51:54.948Z,2.45
2019-05-10T19:56:58.454Z,2.42
2019-05-10T20:02:02.147Z,2.25
2019-05-10T20:07:05.700Z,2.58
2019-05-10T20:12:09.099Z,2.05
2019-05-10T20:17:12.945Z,2.40
2019-05-10T20:22:16.435Z,2.40
2019-05-10T20:27:20.443Z,2.55
2019-05-10T20:32:23.877Z,3.17
2019-05-10T20:37:27.286Z,2.45
2019-05-10T20:42:30.709Z,2.52
2019-05-10T20:47:34.111Z,1.95
2019-05-10T20:52:37.518Z,5.40
2019-05-10T20:57:40.936Z,4.17
2019-05-10T21:02:44.245Z,3.60
2019-05-10T21:07:47.652Z,3.92
2019-05-10T21:12:51.070Z,3.67
2019-05-10T21:17:54.374Z,3.62
2019-05-10T21:22:57.791Z,3.35
2019-05-10T21:28:01.202Z,3.58
2019-05-10T21:33:04.609Z,3.47
2019-05-10T21:38:08.023Z,3.10
2019-05-10T21:43:11.430Z,2.90
2019-05-10T21:48:14.760Z,3.00
2019-05-10T21:53:18.162Z,3.02
2019-05-10T21:58:21.562Z,3.27
2019-05-10T22:03:24.978Z,3.20
2019-05-10T22:08:28.393Z,2.83
2019-05-10T22:13:31.795Z,2.98
2019-05-10T22:18:36.853Z,2.42
2019-05-10T22:23:40.259Z,2.85
2019-05-10T22:28:43.669Z,3.20
2019-05-10T22:33:47.086Z,2.70
2019-05-10T22:39:05.631Z,2.77
2019-05-10T22:43:55.752Z,2.50
2019-05-10T22:48:59.166Z,2.70
2019-05-10T22:54:02.501Z,2.55
2019-05-10T22:59:05.886Z,2.47
2019-05-10T23:04:09.193Z,2.87
2019-05-10T23:09:24.156Z,2.25
2019-05-10T23:14:17.659Z,2.52
2019-05-10T23:19:21.041Z,2.50
2019-05-10T23:24:26.013Z,2.42
2019-05-10T23:29:29.427Z,2.55
2019-05-10T23:34:32.834Z,2.30
2019-05-10T23:39:40.863Z,2.50
2019-05-10T23:44:41.296Z,2.20
2019-05-10T23:49:44.811Z,2.60
2019-05-10T23:54:48.295Z,2.42
2019-05-10T23:59:51.735Z,2.08
